createdAt,value
2023-01-30T00:00:36.808Z,1.6
2023-01-30T00:01:35.952Z,1.5
2023-01-30T00:02:35.285Z,1.5
2023-01-30T00:03:35.444Z,1.5
2023-01-30T00:05:35.100Z,1.5
2023-01-30T00:06:35.516Z,1.5
2023-01-30T00:07:35.135Z,1.4
2023-01-30T00:08:35.726Z,1.4
2023-01-30T00:09:36.148Z,1.4
2023-01-30T00:10:35.736Z,1.4
2023-01-30T00:11:35.544Z,1.4
2023-01-30T00:12:35.772Z,1.4
2023-01-30T00:13:36.133Z,1.4
2023-01-30T00:14:35.386Z,1.4
2023-01-30T00:15:35.153Z,1.4
2023-01-30T00:16:36.063Z,1.4
2023-01-30T00:17:35.580Z,1.4
2023-01-30T00:18:37.025Z,1.4
2023-01-30T00:19:36.102Z,1.4
2023-01-30T00:20:35.099Z,1.4
2023-01-30T00:21:36.015Z,1.4
2023-01-30T00:22:35.406Z,1.4
2023-01-30T00:23:35.308Z,1.4
2023-01-30T00:25:35.623Z,1.4
2023-01-30T00:26:35.567Z,1.4
2023-01-30T00:27:35.946Z,1.5
2023-01-30T00:28:35.235Z,1.5
2023-01-30T00:29:35.660Z,1.4
2023-01-30T00:30:35.729Z,1.4
2023-01-30T00:31:35.760Z,1.4
2023-01-30T00:32:35.163Z,1.5
2023-01-30T00:33:36.087Z,1.5
2023-01-30T00:34:35.849Z,1.5
2023-01-30T00:36:35.085Z,1.5
2023-01-30T00:37:35.130Z,1.5
2023-01-30T00:39:36.349Z,1.5
2023-01-30T00:40:35.627Z,1.5
2023-01-30T00:41:36.264Z,1.5
2023-01-30T00:42:35.028Z,1.5
2023-01-30T00:43:36.400Z,1.5
2023-01-30T00:44:35.252Z,1.5
2023-01-30T00:45:35.763Z,1.6
2023-01-30T00:46:35.461Z,1.5
2023-01-30T00:47:35.987Z,1.6
2023-01-30T00:48:35.072Z,1.6
2023-01-30T00:49:35.296Z,1.6
2023-01-30T00:50:35.892Z,1.6
2023-01-30T00:51:35.897Z,1.7
2023-01-30T00:52:35.881Z,1.6
2023-01-30T00:53:36.210Z,1.6
2023-01-30T00:54:35.837Z,1.7
2023-01-30T00:55:36.132Z,1.7
2023-01-30T00:56:36.251Z,1.7
2023-01-30T00:57:36.658Z,1.7
2023-01-30T00:58:35.765Z,1.7
2023-01-30T00:59:36.161Z,1.7
2023-01-30T01:00:36.295Z,1.7
2023-01-30T01:01:36.298Z,1.7
2023-01-30T01:02:35.975Z,1.7
2023-01-30T01:03:35.476Z,1.7
2023-01-30T01:04:36.083Z,1.7
2023-01-30T01:05:35.011Z,1.8
2023-01-30T01:06:35.869Z,1.8
2023-01-30T01:07:35.085Z,1.8
2023-01-30T01:08:35.407Z,1.8
2023-01-30T01:09:33.861Z,1.8
2023-01-30T01:10:35.722Z,1.8
2023-01-30T01:11:35.652Z,1.8
2023-01-30T01:12:35.434Z,1.8
2023-01-30T01:13:35.445Z,1.8
2023-01-30T01:14:35.636Z,1.8
2023-01-30T01:15:35.886Z,1.8
2023-01-30T01:16:35.974Z,1.8
2023-01-30T01:17:35.679Z,1.8
2023-01-30T01:18:35.262Z,1.8
2023-01-30T01:19:35.007Z,1.9
2023-01-30T01:20:35.867Z,1.9
2023-01-30T01:21:35.722Z,1.9
2023-01-30T01:22:36.218Z,1.9
2023-01-30T01:23:35.082Z,1.9
2023-01-30T01:24:35.302Z,1.9
2023-01-30T01:25:35.710Z,1.9
2023-01-30T01:26:36.020Z,1.9
2023-01-30T01:27:35.725Z,1.9
2023-01-30T01:28:36.137Z,1.9
2023-01-30T01:29:35.325Z,2
2023-01-30T01:30:35.841Z,2
2023-01-30T01:31:35.991Z,2.1
2023-01-30T01:32:35.334Z,2.1
2023-01-30T01:33:34.545Z,2.1
2023-01-30T01:34:35.667Z,2.1
2023-01-30T01:35:35.057Z,2.1
2023-01-30T01:36:52.649Z,2.1
2023-01-30T01:37:36.101Z,2.1
2023-01-30T01:38:35.490Z,2.1
2023-01-30T01:39:35.800Z,2.1
2023-01-30T01:40:35.492Z,2.1
2023-01-30T01:41:34.224Z,2.1
2023-01-30T01:42:35.236Z,2.1
2023-01-30T01:43:36.038Z,2.1
2023-01-30T01:44:35.552Z,2.1
2023-01-30T01:45:35.423Z,2.2
2023-01-30T01:47:35.267Z,2.2
2023-01-30T01:48:35.014Z,2.2
2023-01-30T01:49:35.380Z,2.2
2023-01-30T01:50:36.083Z,2.2
2023-01-30T01:51:35.881Z,2.2
2023-01-30T01:52:34.999Z,2.2
2023-01-30T01:53:35.021Z,2.2
2023-01-30T01:54:36.002Z,2.2
2023-01-30T01:55:35.337Z,2.1
2023-01-30T01:56:35.353Z,2.1
2023-01-30T01:57:35.519Z,2.1
2023-01-30T01:58:35.050Z,2.2
2023-01-30T02:00:35.567Z,2.1
2023-01-30T02:01:37.586Z,2.1
2023-01-30T02:02:35.281Z,2.1
2023-01-30T02:03:35.455Z,2.1
2023-01-30T02:04:35.960Z,2.1
2023-01-30T02:05:35.551Z,2.1
2023-01-30T02:06:35.787Z,2.1
2023-01-30T02:07:35.055Z,2.1
2023-01-30T02:08:35.786Z,2.1
2023-01-30T02:09:36.526Z,2.1
2023-01-30T02:10:35.042Z,2.1
2023-01-30T02:11:35.819Z,2.1
2023-01-30T02:12:36.660Z,2.1
2023-01-30T02:13:35.521Z,2.1
2023-01-30T02:14:35.100Z,2.1
2023-01-30T02:15:35.929Z,2
2023-01-30T02:16:35.736Z,2
2023-01-30T02:17:35.931Z,2
2023-01-30T02:18:35.328Z,2
2023-01-30T02:19:35.654Z,2
2023-01-30T02:20:35.148Z,2
2023-01-30T02:21:35.098Z,2
2023-01-30T02:22:35.349Z,2
2023-01-30T02:23:34.989Z,2
2023-01-30T02:24:35.781Z,2
2023-01-30T02:25:35.425Z,2
2023-01-30T02:26:36.026Z,2.1
2023-01-30T02:27:35.227Z,2.1
2023-01-30T02:28:35.806Z,2.1
2023-01-30T02:29:35.716Z,2.1
2023-01-30T02:30:35.756Z,2.1
2023-01-30T02:31:34.576Z,2.1
2023-01-30T02:32:36.246Z,2.2
2023-01-30T02:33:35.643Z,2.2
2023-01-30T02:34:35.226Z,2.2
2023-01-30T02:35:36.339Z,2.2
2023-01-30T02:36:36.398Z,2.3
2023-01-30T02:37:35.599Z,2.2
2023-01-30T02:38:35.563Z,2.3
2023-01-30T02:39:36.203Z,2.3
2023-01-30T02:40:35.478Z,2.2
2023-01-30T02:41:35.826Z,2.3
2023-01-30T02:42:35.795Z,2.3
2023-01-30T02:43:36.509Z,2.3
2023-01-30T02:44:34.270Z,2.3
2023-01-30T02:45:35.708Z,2.3
2023-01-30T02:46:34.682Z,2.3
2023-01-30T02:47:35.054Z,2.3
2023-01-30T02:48:35.670Z,2.3
2023-01-30T02:49:36.362Z,2.3
2023-01-30T02:50:36.829Z,2.3
2023-01-30T02:51:35.349Z,2.4
2023-01-30T02:52:35.055Z,2.3
2023-01-30T02:55:35.700Z,2.3
2023-01-30T02:56:35.172Z,2.3
2023-01-30T02:57:35.484Z,2.3
2023-01-30T02:58:35.275Z,2.3
2023-01-30T02:59:35.930Z,2.3
2023-01-30T03:00:35.016Z,2.3
2023-01-30T03:01:35.482Z,2.3
2023-01-30T03:02:35.040Z,2.3
2023-01-30T03:03:36.275Z,2.3
2023-01-30T03:04:35.321Z,2.2
2023-01-30T03:05:35.015Z,2.2
2023-01-30T03:06:35.968Z,2.2
2023-01-30T03:07:35.343Z,2.1
2023-01-30T03:08:35.487Z,2.1
2023-01-30T03:09:35.216Z,2.1
2023-01-30T03:10:35.983Z,2.1
2023-01-30T03:11:36.600Z,2
2023-01-30T03:12:35.394Z,2.1
2023-01-30T03:13:35.606Z,2.1
2023-01-30T03:14:35.387Z,2
2023-01-30T03:15:35.077Z,2
2023-01-30T03:16:35.212Z,2
2023-01-30T03:17:35.151Z,2
2023-01-30T03:18:35.518Z,2
2023-01-30T03:19:35.674Z,2
2023-01-30T03:20:35.455Z,2
2023-01-30T03:21:35.260Z,2
2023-01-30T03:22:36.149Z,2
2023-01-30T03:23:35.489Z,1.9
2023-01-30T03:24:34.218Z,2
2023-01-30T03:25:36.384Z,2
2023-01-30T03:26:36.110Z,2
2023-01-30T03:27:35.396Z,2
2023-01-30T03:28:35.478Z,2.1
2023-01-30T03:29:36.712Z,2.1
2023-01-30T03:30:36.162Z,2.1
2023-01-30T03:31:36.021Z,2.1
2023-01-30T03:32:35.312Z,2.1
2023-01-30T03:33:35.207Z,2.1
2023-01-30T03:34:35.100Z,2.2
2023-01-30T03:35:36.439Z,2.2
2023-01-30T03:36:35.839Z,2.2
2023-01-30T03:37:36.162Z,2.2
2023-01-30T03:38:35.951Z,2.2
2023-01-30T03:39:35.565Z,2.3
2023-01-30T03:40:35.866Z,2.3
2023-01-30T03:41:35.013Z,2.3
2023-01-30T03:42:35.676Z,2.3
2023-01-30T03:43:35.615Z,2.4
2023-01-30T03:44:35.543Z,2.4
2023-01-30T03:45:36.014Z,2.4
2023-01-30T03:46:34.995Z,2.4
2023-01-30T03:47:35.009Z,2.4
2023-01-30T03:48:34.987Z,2.5
2023-01-30T03:49:35.004Z,2.5
2023-01-30T03:50:35.532Z,2.5
2023-01-30T03:51:34.981Z,2.5
2023-01-30T03:52:35.669Z,2.5
2023-01-30T03:53:35.637Z,2.5
2023-01-30T03:54:35.375Z,2.5
2023-01-30T03:55:35.831Z,2.6
2023-01-30T03:56:36.481Z,2.6
2023-01-30T03:57:35.157Z,2.6
2023-01-30T03:58:33.840Z,2.6
2023-01-30T03:59:35.208Z,2.6
2023-01-30T04:00:35.304Z,2.6
2023-01-30T04:01:35.939Z,2.6
2023-01-30T04:02:35.346Z,2.7
2023-01-30T04:03:35.511Z,2.6
2023-01-30T04:04:35.779Z,2.7
2023-01-30T04:05:36.555Z,2.7
2023-01-30T04:06:36.793Z,2.7
2023-01-30T04:07:35.637Z,2.7
2023-01-30T04:08:35.329Z,2.8
2023-01-30T04:09:34.119Z,2.8
2023-01-30T04:10:35.746Z,2.8
2023-01-30T04:11:35.885Z,2.7
2023-01-30T04:12:35.666Z,2.8
2023-01-30T04:13:35.694Z,2.8
2023-01-30T04:14:35.475Z,2.8
2023-01-30T04:15:35.977Z,2.9
2023-01-30T04:16:35.776Z,2.8
2023-01-30T04:17:34.972Z,2.9
2023-01-30T04:18:35.167Z,2.9
2023-01-30T04:19:34.977Z,2.9
2023-01-30T04:20:35.055Z,2.9
2023-01-30T04:21:35.037Z,2.9
2023-01-30T04:22:35.727Z,3
2023-01-30T04:23:35.329Z,3
2023-01-30T04:24:35.761Z,3
2023-01-30T04:25:35.116Z,3.1
2023-01-30T04:26:35.241Z,3.1
2023-01-30T04:27:35.394Z,3.1
2023-01-30T04:28:35.660Z,3.1
2023-01-30T04:29:35.623Z,3.2
2023-01-30T04:30:35.039Z,3.2
2023-01-30T04:31:35.032Z,3.2
2023-01-30T04:32:34.559Z,3.2
2023-01-30T04:33:34.983Z,3.3
2023-01-30T04:34:35.164Z,3.3
2023-01-30T04:35:35.669Z,3.3
2023-01-30T04:36:36.335Z,3.4
2023-01-30T04:37:35.412Z,3.3
2023-01-30T04:38:35.721Z,3.3
2023-01-30T04:39:36.043Z,3.4
2023-01-30T04:40:35.204Z,3.4
2023-01-30T04:41:35.142Z,3.4
2023-01-30T04:42:35.541Z,3.4
2023-01-30T04:43:35.147Z,3.5
2023-01-30T04:44:36.409Z,3.5
2023-01-30T04:45:35.860Z,3.6
2023-01-30T04:46:35.406Z,3.6
2023-01-30T04:47:35.198Z,3.6
2023-01-30T04:48:35.089Z,3.6
2023-01-30T04:49:35.599Z,3.7
2023-01-30T04:50:36.305Z,3.7
2023-01-30T04:51:35.091Z,3.7
2023-01-30T04:52:37.150Z,3.7
2023-01-30T04:53:36.142Z,3.7
2023-01-30T04:54:35.422Z,3.7
2023-01-30T04:55:35.762Z,3.7
2023-01-30T04:56:35.234Z,3.7
2023-01-30T04:57:35.548Z,3.8
2023-01-30T04:58:35.504Z,3.8
2023-01-30T04:59:35.518Z,3.8
2023-01-30T05:00:34.984Z,3.9
2023-01-30T05:01:35.090Z,3.9
2023-01-30T05:02:35.760Z,3.9
2023-01-30T05:03:36.391Z,3.9
2023-01-30T05:04:35.275Z,3.9
2023-01-30T05:05:35.200Z,4
2023-01-30T05:06:35.096Z,4
2023-01-30T05:07:35.616Z,4
2023-01-30T05:08:35.825Z,4
2023-01-30T05:09:35.666Z,4
2023-01-30T05:10:35.711Z,4
2023-01-30T05:11:35.560Z,4
2023-01-30T05:12:35.960Z,4.1
2023-01-30T05:13:35.537Z,4
2023-01-30T05:14:35.764Z,4
2023-01-30T05:15:33.930Z,4
2023-01-30T05:16:34.432Z,4
2023-01-30T05:17:35.563Z,4
2023-01-30T05:18:35.056Z,4
2023-01-30T05:19:35.084Z,4
2023-01-30T05:20:35.515Z,4
2023-01-30T05:21:35.327Z,4
2023-01-30T05:22:35.403Z,4
2023-01-30T05:23:35.592Z,4
2023-01-30T05:24:35.399Z,4
2023-01-30T05:25:34.968Z,4
2023-01-30T05:26:35.050Z,4
2023-01-30T05:27:36.663Z,4
2023-01-30T05:28:35.421Z,4
2023-01-30T05:29:35.333Z,4
2023-01-30T05:30:35.068Z,4
2023-01-30T05:31:35.655Z,4
2023-01-30T05:32:34.986Z,4
2023-01-30T05:33:35.352Z,4
2023-01-30T05:34:35.574Z,4
2023-01-30T05:35:34.979Z,4
2023-01-30T05:36:35.071Z,4
2023-01-30T05:37:35.177Z,4
2023-01-30T05:38:34.064Z,4
2023-01-30T05:39:35.010Z,3.9
2023-01-30T05:40:35.407Z,3.9
2023-01-30T05:41:35.223Z,3.9
2023-01-30T05:42:35.499Z,3.9
2023-01-30T05:43:34.951Z,3.9
2023-01-30T05:44:35.832Z,3.9
2023-01-30T05:45:36.146Z,3.9
2023-01-30T05:46:35.077Z,3.9
2023-01-30T05:47:35.759Z,3.9
2023-01-30T05:48:35.054Z,3.8
2023-01-30T05:49:35.364Z,3.8
2023-01-30T05:50:36.016Z,3.8
2023-01-30T05:51:34.979Z,3.8
2023-01-30T05:52:35.415Z,3.8
2023-01-30T05:53:35.378Z,3.8
2023-01-30T05:54:36.419Z,3.7
2023-01-30T05:55:35.230Z,3.7
2023-01-30T05:56:35.402Z,3.8
2023-01-30T05:57:35.723Z,3.8
2023-01-30T05:58:35.480Z,3.7
2023-01-30T05:59:35.012Z,3.7
2023-01-30T06:00:33.800Z,3.7
2023-01-30T06:01:35.434Z,3.7
2023-01-30T06:02:35.483Z,3.7
2023-01-30T06:03:35.162Z,3.7
2023-01-30T06:04:35.047Z,3.7
2023-01-30T06:05:35.991Z,3.7
2023-01-30T06:06:36.141Z,3.7
2023-01-30T06:07:35.478Z,3.7
2023-01-30T06:08:35.996Z,3.7
2023-01-30T06:09:35.011Z,3.7
2023-01-30T06:10:35.572Z,3.7
2023-01-30T06:11:36.010Z,3.7
2023-01-30T06:12:35.719Z,3.7
2023-01-30T06:13:36.233Z,3.7
2023-01-30T06:14:35.346Z,3.7
2023-01-30T06:15:35.841Z,3.7
2023-01-30T06:16:35.481Z,3.7
2023-01-30T06:17:36.249Z,3.7
2023-01-30T06:18:34.977Z,3.7
2023-01-30T06:19:35.077Z,3.7
2023-01-30T06:20:35.767Z,3.7
2023-01-30T06:21:36.608Z,3.7
2023-01-30T06:22:34.509Z,3.7
2023-01-30T06:23:33.786Z,3.7
2023-01-30T06:24:35.003Z,3.7
2023-01-30T06:25:35.216Z,3.7
2023-01-30T06:26:35.743Z,3.7
2023-01-30T06:27:33.875Z,3.7
2023-01-30T06:28:35.829Z,3.7
2023-01-30T06:29:35.210Z,3.7
2023-01-30T06:30:35.778Z,3.7
2023-01-30T06:31:35.277Z,3.7
2023-01-30T06:32:35.012Z,3.7
2023-01-30T06:33:35.950Z,3.7
2023-01-30T06:34:35.667Z,3.7
2023-01-30T06:35:35.545Z,3.7
2023-01-30T06:36:35.877Z,3.7
2023-01-30T06:37:35.195Z,3.7
2023-01-30T06:38:36.108Z,3.7
2023-01-30T06:39:36.196Z,3.7
2023-01-30T06:40:35.383Z,3.8
2023-01-30T06:41:35.804Z,3.7
2023-01-30T06:42:35.223Z,3.8
2023-01-30T06:43:35.986Z,3.8
2023-01-30T06:44:35.533Z,3.8
2023-01-30T06:45:35.696Z,3.8
2023-01-30T06:46:35.418Z,3.8
2023-01-30T06:47:36.247Z,3.8
2023-01-30T06:48:35.033Z,3.8
2023-01-30T06:49:36.248Z,3.8
2023-01-30T06:50:34.740Z,3.8
2023-01-30T06:51:35.065Z,3.8
2023-01-30T06:52:35.042Z,3.8
2023-01-30T06:53:35.202Z,3.8
2023-01-30T06:54:35.988Z,3.8
2023-01-30T06:55:35.465Z,3.8
2023-01-30T06:56:35.174Z,3.9
2023-01-30T06:57:35.386Z,3.9
2023-01-30T06:58:35.603Z,3.9
2023-01-30T06:59:35.078Z,3.9
2023-01-30T07:00:35.531Z,3.9
2023-01-30T07:01:36.106Z,3.9
2023-01-30T07:02:35.076Z,3.9
2023-01-30T07:03:36.042Z,3.9
2023-01-30T07:04:35.152Z,3.9
2023-01-30T07:05:35.917Z,3.9
2023-01-30T07:06:35.043Z,4
2023-01-30T07:07:35.767Z,4
2023-01-30T07:08:35.046Z,4
2023-01-30T07:09:35.014Z,4
2023-01-30T07:10:34.962Z,4
2023-01-30T07:11:35.489Z,4
2023-01-30T07:12:34.979Z,4
2023-01-30T07:13:35.218Z,4
2023-01-30T07:14:35.089Z,4.1
2023-01-30T07:15:36.232Z,4
2023-01-30T07:16:35.651Z,4.1
2023-01-30T07:17:35.529Z,4.1
2023-01-30T07:18:36.041Z,4.1
2023-01-30T07:19:35.428Z,4.1
2023-01-30T07:20:35.853Z,4.1
2023-01-30T07:21:35.046Z,4.1
2023-01-30T07:22:35.418Z,4.1
2023-01-30T07:23:35.048Z,4.1
2023-01-30T07:24:35.781Z,4.2
2023-01-30T07:25:34.989Z,4.2
2023-01-30T07:26:35.480Z,4.2
2023-01-30T07:27:35.274Z,4.2
2023-01-30T07:28:34.982Z,4.2
2023-01-30T07:29:34.989Z,4.2
2023-01-30T07:30:35.496Z,4.2
2023-01-30T07:31:35.775Z,4.3
2023-01-30T07:32:34.488Z,4.3
2023-01-30T07:33:35.833Z,4.3
2023-01-30T07:34:35.647Z,4.3
2023-01-30T07:35:35.852Z,4.3
2023-01-30T07:36:35.977Z,4.3
2023-01-30T07:37:35.773Z,4.3
2023-01-30T07:38:36.618Z,4.3
2023-01-30T07:39:35.556Z,4.4
2023-01-30T07:40:35.987Z,4.3
2023-01-30T07:41:35.158Z,4.3
2023-01-30T07:42:35.500Z,4.3
2023-01-30T07:43:35.287Z,4.3
2023-01-30T07:44:35.390Z,4.3
2023-01-30T07:45:35.291Z,4.3
2023-01-30T07:46:35.664Z,4.3
2023-01-30T07:47:36.236Z,4.3
2023-01-30T07:48:35.842Z,4.3
2023-01-30T07:49:34.953Z,4.3
2023-01-30T07:50:35.179Z,4.3
2023-01-30T07:51:35.292Z,4.3
2023-01-30T07:52:35.423Z,4.3
2023-01-30T07:53:36.365Z,4.3
2023-01-30T07:54:35.572Z,4.3
2023-01-30T07:55:35.465Z,4.3
2023-01-30T07:56:35.458Z,4.3
2023-01-30T07:57:35.569Z,4.3
2023-01-30T07:58:35.582Z,4.3
2023-01-30T07:59:35.799Z,4.2
2023-01-30T08:00:35.287Z,4.3
2023-01-30T08:01:35.459Z,4.2
2023-01-30T08:02:35.277Z,4.2
2023-01-30T08:03:36.238Z,4.2
2023-01-30T08:04:35.039Z,4.2
2023-01-30T08:05:35.937Z,4.3
2023-01-30T08:06:34.987Z,4.3
2023-01-30T08:07:35.012Z,4.2
2023-01-30T08:08:35.588Z,4.2
2023-01-30T08:09:35.034Z,4.2
2023-01-30T08:10:36.377Z,4.2
2023-01-30T08:11:35.164Z,4.2
2023-01-30T08:12:35.225Z,4.2
2023-01-30T08:13:35.876Z,4.2
2023-01-30T08:14:35.177Z,4.2
2023-01-30T08:15:36.392Z,4.2
2023-01-30T08:16:35.628Z,4.2
2023-01-30T08:17:34.178Z,4.2
2023-01-30T08:18:35.513Z,4.2
2023-01-30T08:19:36.014Z,4.2
2023-01-30T08:20:35.915Z,4.2
2023-01-30T08:21:35.310Z,4.2
2023-01-30T08:22:35.427Z,4.2
2023-01-30T08:23:35.615Z,4.2
2023-01-30T08:24:35.054Z,4.2
2023-01-30T08:25:35.059Z,4.3
2023-01-30T08:26:35.351Z,4.2
2023-01-30T08:27:36.279Z,4.2
2023-01-30T08:28:36.073Z,4.3
2023-01-30T08:29:35.673Z,4.3
2023-01-30T08:30:36.542Z,4.3
2023-01-30T08:31:35.758Z,4.3
2023-01-30T08:32:35.713Z,4.3
2023-01-30T08:33:35.105Z,4.3
2023-01-30T08:34:35.504Z,4.3
2023-01-30T08:35:35.476Z,4.2
2023-01-30T08:36:36.495Z,4.2
2023-01-30T08:37:36.544Z,4.3
2023-01-30T08:38:35.555Z,4.3
2023-01-30T08:39:37.255Z,4.3
2023-01-30T08:40:34.921Z,4.3
2023-01-30T08:41:35.247Z,4.3
2023-01-30T08:42:35.038Z,4.3
2023-01-30T08:43:35.037Z,4.3
2023-01-30T08:44:35.293Z,4.3
2023-01-30T08:45:34.939Z,4.3
2023-01-30T08:46:35.166Z,4.3
2023-01-30T08:47:35.348Z,4.4
2023-01-30T08:48:47.716Z,4.4
2023-01-30T08:49:35.898Z,4.4
2023-01-30T08:50:35.505Z,4.4
2023-01-30T08:51:35.778Z,4.4
2023-01-30T08:52:35.532Z,4.4
2023-01-30T08:53:36.442Z,4.4
2023-01-30T08:54:35.540Z,4.4
2023-01-30T08:55:35.238Z,4.4
2023-01-30T08:56:36.478Z,4.4
2023-01-30T08:57:35.032Z,4.4
2023-01-30T08:58:35.367Z,4.4
2023-01-30T08:59:35.665Z,4.4
2023-01-30T09:00:35.895Z,4.4
2023-01-30T09:01:34.620Z,4.4
2023-01-30T09:02:35.934Z,4.4
2023-01-30T09:03:36.403Z,4.4
2023-01-30T09:04:35.504Z,4.5
2023-01-30T09:05:35.542Z,4.5
2023-01-30T09:06:34.949Z,4.5
2023-01-30T09:07:35.610Z,4.5
2023-01-30T09:08:35.528Z,4.5
2023-01-30T09:09:35.705Z,4.5
2023-01-30T09:10:35.344Z,4.5
2023-01-30T09:11:35.653Z,4.6
2023-01-30T09:12:36.263Z,4.6
2023-01-30T09:13:35.995Z,4.6
2023-01-30T09:14:35.654Z,4.6
2023-01-30T09:15:35.769Z,4.6
2023-01-30T09:16:35.087Z,4.6
2023-01-30T09:17:35.675Z,4.7
2023-01-30T09:18:37.421Z,4.7
2023-01-30T09:19:35.586Z,4.7
2023-01-30T09:20:35.440Z,4.8
2023-01-30T09:21:35.387Z,4.9
2023-01-30T09:22:35.098Z,4.9
2023-01-30T09:23:33.743Z,4.9
2023-01-30T09:24:35.834Z,4.9
2023-01-30T09:25:35.195Z,4.9
2023-01-30T09:26:35.739Z,5
2023-01-30T09:27:35.650Z,4.9
2023-01-30T09:28:35.448Z,4.9
2023-01-30T09:29:35.386Z,4.9
2023-01-30T09:30:36.410Z,5
2023-01-30T09:31:35.530Z,5
2023-01-30T09:32:35.293Z,5
2023-01-30T09:33:35.483Z,5.1
2023-01-30T09:34:35.546Z,5
2023-01-30T09:35:36.287Z,5
2023-01-30T09:36:35.888Z,5
2023-01-30T09:37:35.248Z,5
2023-01-30T09:38:36.554Z,5
2023-01-30T09:39:35.496Z,5
2023-01-30T09:40:35.940Z,4.9
2023-01-30T09:41:35.524Z,4.9
2023-01-30T09:42:38.059Z,4.9
2023-01-30T09:43:35.656Z,5
2023-01-30T09:44:35.769Z,5.1
2023-01-30T09:45:34.915Z,5.2
2023-01-30T09:46:35.039Z,5.2
2023-01-30T09:47:34.985Z,5.3
2023-01-30T09:48:33.803Z,5.3
2023-01-30T09:49:36.108Z,5.4
2023-01-30T09:50:34.916Z,5.4
2023-01-30T09:51:35.550Z,5.4
2023-01-30T09:52:35.000Z,5.4
2023-01-30T09:53:34.991Z,5.5
2023-01-30T09:54:35.387Z,5.5
2023-01-30T09:55:36.296Z,5.5
2023-01-30T09:56:35.113Z,5.6
2023-01-30T09:57:35.116Z,5.6
2023-01-30T09:58:35.335Z,5.6
2023-01-30T09:59:35.534Z,5.6
2023-01-30T10:00:35.556Z,5.7
2023-01-30T10:01:35.469Z,5.8
2023-01-30T10:02:35.544Z,5.8
2023-01-30T10:03:35.534Z,5.8
2023-01-30T10:04:34.956Z,5.8
2023-01-30T10:05:35.043Z,5.9
2023-01-30T10:06:35.504Z,6
2023-01-30T10:07:36.217Z,5.9
2023-01-30T10:08:35.394Z,5.9
2023-01-30T10:09:35.095Z,5.9
2023-01-30T10:10:33.752Z,5.9
2023-01-30T10:11:36.260Z,5.9
2023-01-30T10:12:35.158Z,5.9
2023-01-30T10:13:35.728Z,6
2023-01-30T10:14:35.438Z,5.9
2023-01-30T10:15:35.579Z,5.9
2023-01-30T10:16:35.345Z,5.9
2023-01-30T10:17:35.375Z,5.9
2023-01-30T10:18:34.935Z,5.9
2023-01-30T10:19:36.789Z,5.8
2023-01-30T10:20:35.469Z,5.8
2023-01-30T10:21:36.189Z,5.9
2023-01-30T10:22:35.495Z,5.9
2023-01-30T10:23:34.937Z,5.9
2023-01-30T10:24:35.572Z,5.9
2023-01-30T10:25:35.584Z,5.9
2023-01-30T10:26:35.838Z,5.9
2023-01-30T10:27:36.223Z,5.9
2023-01-30T10:28:35.332Z,5.9
2023-01-30T10:29:35.316Z,5.9
2023-01-30T10:30:36.143Z,5.9
2023-01-30T10:31:35.955Z,6
2023-01-30T10:32:35.454Z,5.9
2023-01-30T10:33:34.079Z,5.8
2023-01-30T10:34:34.913Z,5.8
2023-01-30T10:35:35.081Z,5.9
2023-01-30T10:36:35.166Z,6
2023-01-30T10:37:36.122Z,5.9
2023-01-30T10:38:35.915Z,6
2023-01-30T10:39:36.913Z,5.9
2023-01-30T10:40:35.284Z,5.9
2023-01-30T10:41:36.411Z,5.9
2023-01-30T10:42:35.467Z,6
2023-01-30T10:43:35.635Z,6
2023-01-30T10:44:36.031Z,6.1
2023-01-30T10:45:36.646Z,6.1
2023-01-30T10:46:35.833Z,6.1
2023-01-30T10:47:46.555Z,6
2023-01-30T10:48:43.959Z,6.1
2023-01-30T10:49:35.010Z,6.1
2023-01-30T10:50:36.274Z,6.2
2023-01-30T10:51:35.387Z,6.2
2023-01-30T10:52:35.461Z,6.1
2023-01-30T10:53:36.395Z,6.1
2023-01-30T10:54:35.820Z,6.1
2023-01-30T10:55:37.978Z,6.1
2023-01-30T10:56:36.420Z,6.1
2023-01-30T10:57:34.913Z,6.1
2023-01-30T10:58:34.929Z,6.1
2023-01-30T10:59:35.782Z,6.3
2023-01-30T11:00:34.962Z,6.3
2023-01-30T11:01:35.540Z,6.2
2023-01-30T11:02:34.953Z,6.3
2023-01-30T11:03:34.990Z,6.2
2023-01-30T11:04:35.958Z,6.2
2023-01-30T11:05:35.032Z,6.2
2023-01-30T11:06:35.766Z,6.1
2023-01-30T11:07:35.766Z,6
2023-01-30T11:08:35.569Z,6
2023-01-30T11:09:35.354Z,6
2023-01-30T11:10:34.971Z,6
2023-01-30T11:11:36.473Z,6
2023-01-30T11:12:35.702Z,6
2023-01-30T11:13:34.920Z,6
2023-01-30T11:14:35.857Z,6
2023-01-30T11:15:35.013Z,6
2023-01-30T11:16:35.026Z,6.1
2023-01-30T11:17:36.237Z,6.1
2023-01-30T11:19:18.118Z,6.1
2023-01-30T11:19:35.536Z,6
2023-01-30T11:20:35.235Z,6
2023-01-30T11:21:43.951Z,6
2023-01-30T11:22:34.959Z,6
2023-01-30T11:23:35.263Z,6
2023-01-30T11:24:35.674Z,6
2023-01-30T11:25:35.782Z,6
2023-01-30T11:26:46.864Z,5.9
2023-01-30T11:27:35.103Z,5.9
2023-01-30T11:28:34.933Z,5.9
2023-01-30T11:29:35.647Z,5.9
2023-01-30T11:30:35.544Z,5.9
2023-01-30T11:31:41.554Z,5.9
2023-01-30T11:32:35.523Z,5.9
2023-01-30T11:33:34.899Z,5.9
2023-01-30T11:34:34.933Z,5.9
2023-01-30T11:35:35.827Z,5.9
2023-01-30T11:36:35.922Z,5.9
2023-01-30T11:37:35.053Z,5.8
2023-01-30T11:38:35.050Z,5.8
2023-01-30T11:39:35.353Z,5.9
2023-01-30T11:40:36.093Z,5.8
2023-01-30T11:41:35.014Z,5.8
2023-01-30T11:42:35.783Z,5.8
2023-01-30T11:43:35.163Z,5.8
2023-01-30T11:44:35.218Z,5.8
2023-01-30T11:45:36.011Z,5.8
2023-01-30T11:46:35.807Z,5.8
2023-01-30T11:47:35.693Z,5.8
2023-01-30T11:49:11.108Z,5.8
2023-01-30T11:49:48.600Z,5.8
2023-01-30T11:50:37.182Z,5.7
2023-01-30T11:51:35.544Z,5.8
2023-01-30T11:52:35.370Z,5.8
2023-01-30T11:53:35.050Z,5.8
2023-01-30T11:54:34.916Z,5.8
2023-01-30T11:55:35.878Z,5.8
2023-01-30T11:56:35.586Z,5.8
2023-01-30T11:57:35.286Z,5.8
2023-01-30T11:58:35.082Z,5.8
2023-01-30T11:59:36.617Z,5.8
2023-01-30T12:00:35.286Z,5.8
2023-01-30T12:01:35.607Z,5.8
2023-01-30T12:02:35.611Z,5.7
2023-01-30T12:03:35.759Z,5.7
2023-01-30T12:04:35.316Z,5.7
2023-01-30T12:05:36.597Z,5.7
2023-01-30T12:06:36.249Z,5.7
2023-01-30T12:07:35.601Z,5.8
2023-01-30T12:08:41.756Z,5.8
2023-01-30T12:09:34.914Z,5.8
2023-01-30T12:10:35.265Z,5.8
2023-01-30T12:11:36.562Z,5.8
2023-01-30T12:12:34.966Z,5.8
2023-01-30T12:13:35.272Z,5.8
2023-01-30T12:14:35.993Z,5.9
2023-01-30T12:15:35.910Z,5.9
2023-01-30T12:16:35.406Z,5.9
2023-01-30T12:17:36.275Z,5.9
2023-01-30T12:18:35.638Z,5.9
2023-01-30T12:19:35.393Z,5.9
2023-01-30T12:20:35.324Z,5.9
2023-01-30T12:21:35.935Z,5.9
2023-01-30T12:22:35.500Z,5.9
2023-01-30T12:23:36.135Z,5.9
2023-01-30T12:24:35.254Z,5.9
2023-01-30T12:25:34.000Z,5.8
2023-01-30T12:26:35.768Z,5.8
2023-01-30T12:27:34.953Z,5.8
2023-01-30T12:28:35.575Z,5.8
2023-01-30T12:29:35.081Z,5.8
2023-01-30T12:30:35.416Z,5.8
2023-01-30T12:31:35.183Z,5.8
2023-01-30T12:32:35.091Z,5.8
2023-01-30T12:33:35.228Z,5.8
2023-01-30T12:34:35.312Z,5.8
2023-01-30T12:35:35.305Z,5.8
2023-01-30T12:36:35.953Z,5.8
2023-01-30T12:37:35.535Z,5.7
2023-01-30T12:38:34.895Z,5.7
2023-01-30T12:39:35.909Z,5.8
2023-01-30T12:40:35.377Z,5.8
2023-01-30T12:41:36.235Z,5.8
2023-01-30T12:42:36.104Z,5.8
2023-01-30T12:43:35.678Z,5.8
2023-01-30T12:44:35.413Z,5.8
2023-01-30T12:45:35.899Z,5.8
2023-01-30T12:46:35.275Z,5.8
2023-01-30T12:47:34.396Z,5.8
2023-01-30T12:48:43.987Z,5.8
2023-01-30T12:49:34.931Z,5.8
2023-01-30T12:50:34.891Z,5.8
2023-01-30T12:51:35.014Z,5.8
2023-01-30T12:52:35.964Z,5.8
2023-01-30T12:53:34.918Z,5.8
2023-01-30T12:54:35.072Z,5.8
2023-01-30T12:55:35.858Z,5.8
2023-01-30T12:56:35.421Z,5.8
2023-01-30T12:57:35.460Z,5.8
2023-01-30T12:58:35.083Z,5.8
2023-01-30T12:59:35.481Z,5.8
2023-01-30T13:00:34.891Z,5.7
2023-01-30T13:01:35.914Z,5.6
2023-01-30T13:02:36.602Z,5.6
2023-01-30T13:03:35.596Z,5.6
2023-01-30T13:04:35.830Z,5.6
2023-01-30T13:05:35.481Z,5.6
2023-01-30T13:06:36.229Z,5.6
2023-01-30T13:07:35.958Z,5.7
2023-01-30T13:08:35.964Z,5.7
2023-01-30T13:10:34.930Z,5.8
2023-01-30T13:11:36.101Z,5.8
2023-01-30T13:12:35.309Z,5.9
2023-01-30T13:13:35.906Z,6
2023-01-30T13:14:36.582Z,6.1
2023-01-30T13:15:35.483Z,6.1
2023-01-30T13:16:35.750Z,6
2023-01-30T13:17:35.517Z,5.9
2023-01-30T13:18:35.721Z,5.9
2023-01-30T13:19:40.797Z,5.9
2023-01-30T13:20:35.630Z,5.8
2023-01-30T13:21:35.629Z,5.8
2023-01-30T13:22:35.516Z,5.9
2023-01-30T13:23:34.965Z,5.9
2023-01-30T13:24:36.034Z,5.9
2023-01-30T13:25:35.116Z,5.9
2023-01-30T13:26:35.452Z,5.9
2023-01-30T13:27:34.875Z,6
2023-01-30T13:28:35.396Z,6
2023-01-30T13:29:35.149Z,6.2
2023-01-30T13:30:34.929Z,6.3
2023-01-30T13:31:35.233Z,6.3
2023-01-30T13:32:35.713Z,6.3
2023-01-30T13:33:35.550Z,6.3
2023-01-30T13:34:35.389Z,6.3
2023-01-30T13:35:36.415Z,6.3
2023-01-30T13:36:35.735Z,6.3
2023-01-30T13:37:35.272Z,6.3
2023-01-30T13:38:35.516Z,6.3
2023-01-30T13:39:35.814Z,6.3
2023-01-30T13:40:36.361Z,6.2
2023-01-30T13:41:34.923Z,6.1
2023-01-30T13:42:36.290Z,6.1
2023-01-30T13:43:34.929Z,6
2023-01-30T13:44:39.185Z,6
2023-01-30T13:45:36.805Z,6
2023-01-30T13:46:36.324Z,5.9
2023-01-30T13:47:35.517Z,5.9
2023-01-30T13:48:35.704Z,5.9
2023-01-30T13:49:35.186Z,6
2023-01-30T13:50:35.374Z,5.9
2023-01-30T13:51:35.655Z,5.9
2023-01-30T13:52:35.596Z,5.9
2023-01-30T13:53:35.450Z,5.9
2023-01-30T13:54:36.064Z,5.8
2023-01-30T13:55:35.077Z,5.7
2023-01-30T13:56:41.793Z,5.7
2023-01-30T13:57:34.909Z,5.7
2023-01-30T13:58:34.944Z,5.7
2023-01-30T13:59:36.153Z,5.7
2023-01-30T14:00:35.379Z,5.8
2023-01-30T14:01:35.476Z,5.8
2023-01-30T14:02:35.063Z,5.9
2023-01-30T14:03:35.671Z,6